createdAt,value
2018-10-11T00:00:20.025Z,23.73
2018-10-11T00:02:48.202Z,24.98
2018-10-11T00:05:16.331Z,25.08
2018-10-11T00:07:44.480Z,23.90
2018-10-11T00:10:12.617Z,24.57
2018-10-11T00:12:40.764Z,24.52
2018-10-11T00:15:08.920Z,25.08
2018-10-11T00:17:37.064Z,25.12
2018-10-11T00:20:05.288Z,24.43
2018-10-11T00:22:33.477Z,24.80
2018-10-11T00:25:01.645Z,25.40
2018-10-11T00:27:29.795Z,26.37
2018-10-11T00:29:57.931Z,26.00
2018-10-11T00:32:26.104Z,25.05
2018-10-11T00:34:54.237Z,25.00
2018-10-11T00:37:22.384Z,24.80
2018-10-11T00:39:50.503Z,25.60
2018-10-11T00:42:18.649Z,25.17
2018-10-11T00:44:46.799Z,26.00
2018-10-11T00:47:14.937Z,25.60
2018-10-11T00:49:43.055Z,24.10
2018-10-11T00:52:11.204Z,25.82
2018-10-11T00:54:39.347Z,25.80
2018-10-11T00:57:07.606Z,25.55
2018-10-11T00:59:35.736Z,25.90
2018-10-11T01:02:03.931Z,25.45
2018-10-11T01:04:32.084Z,26.02
2018-10-11T01:07:00.227Z,26.15
2018-10-11T01:09:28.452Z,25.92
2018-10-11T01:11:56.519Z,26.65
2018-10-11T01:14:24.700Z,26.33
2018-10-11T01:16:52.857Z,26.05
2018-10-11T01:19:21.008Z,26.37
2018-10-11T01:21:49.164Z,26.52
2018-10-11T01:24:17.355Z,25.30
2018-10-11T01:26:45.668Z,26.17
2018-10-11T01:29:13.828Z,25.82
2018-10-11T01:31:42.017Z,27.20
2018-10-11T01:34:10.144Z,26.68
2018-10-11T01:36:38.371Z,27.10
2018-10-11T01:39:07.059Z,26.75
2018-10-11T01:41:35.216Z,27.32
2018-10-11T01:44:03.375Z,26.23
2018-10-11T01:46:31.508Z,26.52
2018-10-11T01:48:59.684Z,26.75
2018-10-11T01:51:27.822Z,25.32
2018-10-11T01:53:55.955Z,26.07
2018-10-11T01:56:24.107Z,26.05
2018-10-11T01:58:52.228Z,26.80
2018-10-11T02:01:20.468Z,26.05
2018-10-11T02:03:48.585Z,26.87
2018-10-11T02:06:16.744Z,26.10
2018-10-11T02:08:44.901Z,26.15
2018-10-11T02:11:13.028Z,25.62
2018-10-11T02:13:41.211Z,26.30
2018-10-11T02:16:09.344Z,25.90
2018-10-11T02:18:37.500Z,24.55
2018-10-11T02:21:05.928Z,25.77
2018-10-11T02:23:34.152Z,25.37
2018-10-11T02:26:02.312Z,25.17
2018-10-11T02:28:30.447Z,26.23
2018-10-11T02:30:58.576Z,26.17
2018-10-11T02:33:26.740Z,25.70
2018-10-11T02:35:55.267Z,26.07
2018-10-11T02:38:23.497Z,25.00
2018-10-11T02:40:51.644Z,26.12
2018-10-11T02:43:19.815Z,26.57
2018-10-11T02:45:48.048Z,25.30
2018-10-11T02:48:16.194Z,25.50
2018-10-11T02:50:44.332Z,24.87
2018-10-11T02:53:12.517Z,27.60
2018-10-11T02:55:40.699Z,25.30
2018-10-11T02:58:14.411Z,26.25
2018-10-11T03:00:42.611Z,25.97
2018-10-11T03:03:12.851Z,26.87
2018-10-11T03:05:42.867Z,26.30
2018-10-11T03:08:13.459Z,26.23
2018-10-11T03:10:41.786Z,26.65
2018-10-11T03:13:11.791Z,27.07
2018-10-11T03:15:40.397Z,27.02
2018-10-11T03:18:08.773Z,27.85
2018-10-11T03:20:36.906Z,27.77
2018-10-11T03:23:05.101Z,27.50
2018-10-11T03:25:33.244Z,26.90
2018-10-11T03:28:01.404Z,27.00
2018-10-11T03:30:29.539Z,26.50
2018-10-11T03:32:57.671Z,27.17
2018-10-11T03:35:26.076Z,27.22
2018-10-11T03:37:54.457Z,27.60
2018-10-11T03:40:22.603Z,27.22
2018-10-11T03:42:50.752Z,27.10
2018-10-11T03:45:18.903Z,26.93
2018-10-11T03:47:47.655Z,26.33
2018-10-11T03:50:15.797Z,26.95
2018-10-11T03:52:43.919Z,28.60
2018-10-11T03:55:12.043Z,27.67
2018-10-11T03:57:40.212Z,27.55
2018-10-11T04:00:08.378Z,27.65
2018-10-11T04:02:36.537Z,27.48
2018-10-11T04:05:04.852Z,33.92
2018-10-11T04:07:33.038Z,38.55
2018-10-11T04:10:01.164Z,28.23
2018-10-11T04:12:29.311Z,28.10
2018-10-11T04:14:57.452Z,28.75
2018-10-11T04:17:25.573Z,28.45
2018-10-11T04:19:53.744Z,27.93
2018-10-11T04:22:21.888Z,28.05
2018-10-11T04:24:50.023Z,28.10
2018-10-11T04:27:18.151Z,27.48
2018-10-11T04:29:46.279Z,27.67
2018-10-11T04:32:14.424Z,27.42
2018-10-11T04:34:42.585Z,28.50
2018-10-11T04:37:10.952Z,28.30
2018-10-11T04:39:39.232Z,28.05
2018-10-11T04:42:07.664Z,30.00
2018-10-11T04:44:36.626Z,29.45
2018-10-11T04:47:05.188Z,29.57
2018-10-11T04:49:33.592Z,28.87
2018-10-11T04:52:01.746Z,28.10
2018-10-11T04:54:29.868Z,29.77
2018-10-11T04:56:58.032Z,29.67
2018-10-11T04:59:26.198Z,30.40
2018-10-11T05:01:54.603Z,30.32
2018-10-11T05:04:22.747Z,28.17
2018-10-11T05:06:50.879Z,29.65
2018-10-11T05:09:19.023Z,31.07
2018-10-11T05:11:47.166Z,30.35
2018-10-11T05:14:15.590Z,30.10
2018-10-11T05:16:43.790Z,30.52
2018-10-11T05:19:11.956Z,29.32
2018-10-11T05:21:40.562Z,30.95
2018-10-11T05:24:08.715Z,30.95
2018-10-11T05:26:36.852Z,31.02
2018-10-11T05:29:04.999Z,32.65
2018-10-11T05:31:33.156Z,31.73
2018-10-11T05:34:01.274Z,31.45
2018-10-11T05:36:29.424Z,30.95
2018-10-11T05:38:57.561Z,29.63
2018-10-11T05:41:25.756Z,30.82
2018-10-11T05:43:53.896Z,30.65
2018-10-11T05:46:23.323Z,30.77
2018-10-11T05:48:51.952Z,30.77
2018-10-11T05:51:20.433Z,31.57
2018-10-11T05:53:48.602Z,29.57
2018-10-11T05:56:17.453Z,31.48
2018-10-11T05:58:45.672Z,29.40
2018-10-11T06:01:13.786Z,31.02
2018-10-11T06:03:42.481Z,29.80
2018-10-11T06:06:10.624Z,30.20
2018-10-11T06:08:38.760Z,29.98
2018-10-11T06:11:07.184Z,30.60
2018-10-11T06:13:35.317Z,29.50
2018-10-11T06:16:03.495Z,30.72
2018-10-11T06:18:31.649Z,29.67
2018-10-11T06:20:59.804Z,29.50
2018-10-11T06:23:27.948Z,29.27
2018-10-11T06:25:56.104Z,29.63
2018-10-11T06:28:24.259Z,30.35
2018-10-11T06:30:52.413Z,29.80
2018-10-11T06:33:20.595Z,29.48
2018-10-11T06:35:48.767Z,28.32
2018-10-11T06:38:16.955Z,28.75
2018-10-11T06:40:45.120Z,29.57
2018-10-11T06:43:13.332Z,30.15
2018-10-11T06:45:42.161Z,28.32
2018-10-11T06:48:10.475Z,29.15
2018-10-11T06:50:39.098Z,28.90
2018-10-11T06:53:07.273Z,29.30
2018-10-11T06:55:35.394Z,26.55
2018-10-11T06:58:03.523Z,27.05
2018-10-11T07:00:31.660Z,26.65
2018-10-11T07:03:00.036Z,23.67
2018-10-11T07:05:28.168Z,22.13
2018-10-11T07:07:56.320Z,20.75
2018-10-11T07:10:24.596Z,19.07
2018-10-11T07:12:52.751Z,19.07
2018-10-11T07:15:20.839Z,18.45
2018-10-11T07:17:49.103Z,18.77
2018-10-11T07:20:17.302Z,17.32
2018-10-11T07:22:45.415Z,18.02
2018-10-11T07:25:13.552Z,17.25
2018-10-11T07:27:41.679Z,17.20
2018-10-11T07:30:09.838Z,17.35
2018-10-11T07:32:38.065Z,17.92
2018-10-11T07:35:06.204Z,17.37
2018-10-11T07:37:34.389Z,17.62
2018-10-11T07:40:02.581Z,17.40
2018-10-11T07:42:30.773Z,17.40
2018-10-11T07:44:58.911Z,18.23
2018-10-11T07:47:27.036Z,19.27
2018-10-11T07:49:55.128Z,18.65
2018-10-11T07:52:23.346Z,17.57
2018-10-11T07:54:51.444Z,18.62
2018-10-11T07:57:19.524Z,17.60
2018-10-11T07:59:47.654Z,16.23
2018-10-11T08:02:15.740Z,15.75
2018-10-11T08:04:43.904Z,15.10
2018-10-11T08:07:12.072Z,14.55
2018-10-11T08:09:40.789Z,14.70
2018-10-11T08:12:08.945Z,17.00
2018-10-11T08:14:37.033Z,15.45
2018-10-11T08:17:06.083Z,15.63
2018-10-11T08:19:34.230Z,14.40
2018-10-11T08:22:02.244Z,15.95
2018-10-11T08:24:30.503Z,15.68
2018-10-11T08:26:58.719Z,14.95
2018-10-11T08:29:26.736Z,15.03
2018-10-11T08:31:54.823Z,15.25
2018-10-11T08:34:22.952Z,15.30
2018-10-11T08:36:51.092Z,15.05
2018-10-11T08:39:19.270Z,14.70
2018-10-11T08:41:47.483Z,14.28
2018-10-11T08:44:15.635Z,15.58
2018-10-11T08:46:43.729Z,15.05
2018-10-11T08:49:12.012Z,15.78
2018-10-11T08:51:40.134Z,13.80
2018-10-11T08:54:13.684Z,13.88
2018-10-11T08:56:41.794Z,14.07
2018-10-11T08:59:09.945Z,13.40
2018-10-11T09:01:38.116Z,13.93
2018-10-11T09:04:06.447Z,14.45
2018-10-11T09:06:34.475Z,13.03
2018-10-11T09:09:02.687Z,13.65
2018-10-11T09:11:30.922Z,14.33
2018-10-11T09:13:59.064Z,12.88
2018-10-11T09:16:27.275Z,12.68
2018-10-11T09:18:55.368Z,11.90
2018-10-11T09:21:23.556Z,11.95
2018-10-11T09:23:51.727Z,11.28
2018-10-11T09:26:19.914Z,11.83
2018-10-11T09:28:48.080Z,12.60
2018-10-11T09:31:16.341Z,11.30
2018-10-11T09:33:44.421Z,11.03
2018-10-11T09:36:12.565Z,11.10
2018-10-11T09:38:40.783Z,11.80
2018-10-11T09:41:08.935Z,10.98
2018-10-11T09:43:37.057Z,10.53
2018-10-11T09:46:05.191Z,11.00
2018-10-11T09:48:33.332Z,10.53
2018-10-11T09:51:01.536Z,10.72
2018-10-11T09:53:29.783Z,10.45
2018-10-11T09:55:57.896Z,11.70
2018-10-11T09:58:26.050Z,12.63
2018-10-11T10:00:59.817Z,12.75
2018-10-11T10:03:27.908Z,12.37
2018-10-11T10:05:56.016Z,13.45
2018-10-11T10:08:24.196Z,12.95
2018-10-11T10:10:52.287Z,12.20
2018-10-11T10:13:20.383Z,11.93
2018-10-11T10:15:48.510Z,11.78
2018-10-11T10:18:16.705Z,11.70
2018-10-11T10:20:44.839Z,11.00
2018-10-11T10:23:13.063Z,11.70
2018-10-11T10:25:41.213Z,10.85
2018-10-11T10:28:09.388Z,11.88
2018-10-11T10:30:42.972Z,11.60
2018-10-11T10:33:11.068Z,10.50
2018-10-11T10:35:39.229Z,10.98
2018-10-11T10:38:07.323Z,10.32
2018-10-11T10:40:35.512Z,10.93
2018-10-11T10:43:03.657Z,10.85
2018-10-11T10:45:31.752Z,10.58
2018-10-11T10:47:59.868Z,10.45
2018-10-11T10:50:28.074Z,10.68
2018-10-11T10:52:56.272Z,10.65
2018-10-11T10:55:24.400Z,10.45
2018-10-11T10:57:53.464Z,10.88
2018-10-11T11:00:21.717Z,10.78
2018-10-11T11:02:49.892Z,10.30
2018-10-11T11:05:18.075Z,9.83
2018-10-11T11:07:46.215Z,10.43
2018-10-11T11:10:14.401Z,9.88
2018-10-11T11:12:42.568Z,9.88
2018-10-11T11:15:10.716Z,9.80
2018-10-11T11:17:38.979Z,8.83
2018-10-11T11:20:07.196Z,9.00
2018-10-11T11:22:35.272Z,8.98
2018-10-11T11:25:03.465Z,9.63
2018-10-11T11:27:31.611Z,9.38
2018-10-11T11:29:59.780Z,8.50
2018-10-11T11:32:28.060Z,8.73
2018-10-11T11:34:56.255Z,8.68
2018-10-11T11:37:25.320Z,8.10
2018-10-11T11:39:53.499Z,8.35
2018-10-11T11:42:21.709Z,8.70
2018-10-11T11:44:49.909Z,7.87
2018-10-11T11:47:17.985Z,7.65
2018-10-11T11:49:46.097Z,8.08
2018-10-11T11:52:14.284Z,8.35
2018-10-11T11:54:42.341Z,7.80
2018-10-11T11:57:10.511Z,8.45
2018-10-11T11:59:38.776Z,8.83
2018-10-11T12:02:06.977Z,8.53
2018-10-11T12:04:35.138Z,9.30
2018-10-11T12:07:03.312Z,8.53
2018-10-11T12:09:31.399Z,9.20
2018-10-11T12:11:59.578Z,9.15
2018-10-11T12:14:27.660Z,8.65
2018-10-11T12:16:55.775Z,9.30
2018-10-11T12:19:23.844Z,8.88
2018-10-11T12:21:51.923Z,8.93
2018-10-11T12:24:20.008Z,9.25
2018-10-11T12:26:48.087Z,8.85
2018-10-11T12:29:16.182Z,8.93
2018-10-11T12:31:44.283Z,8.90
2018-10-11T12:34:12.362Z,9.55
2018-10-11T12:36:40.458Z,9.70
2018-10-11T12:39:09.269Z,9.73
2018-10-11T12:41:37.367Z,9.43
2018-10-11T12:44:05.888Z,8.13
2018-10-11T12:46:34.751Z,8.40
2018-10-11T12:49:02.115Z,8.55
2018-10-11T12:51:30.267Z,8.25
2018-10-11T12:53:58.362Z,8.20
2018-10-11T12:56:26.544Z,8.30
2018-10-11T12:58:54.640Z,7.80
2018-10-11T13:01:24.067Z,8.60
2018-10-11T13:03:51.036Z,8.50
2018-10-11T13:06:19.148Z,8.95
2018-10-11T13:08:47.326Z,8.23
2018-10-11T13:11:15.424Z,8.33
2018-10-11T13:13:46.955Z,8.38
2018-10-11T13:16:11.771Z,8.73
2018-10-11T13:18:39.879Z,8.83
2018-10-11T13:21:08.004Z,8.03
2018-10-11T13:23:36.127Z,8.00
2018-10-11T13:26:04.413Z,8.00
2018-10-11T13:28:32.505Z,7.80
2018-10-11T13:31:01.379Z,7.58
2018-10-11T13:33:29.511Z,7.70
2018-10-11T13:35:57.680Z,7.42
2018-10-11T13:38:25.800Z,7.50
2018-10-11T13:40:56.896Z,7.53
2018-10-11T13:43:22.016Z,6.95
2018-10-11T13:45:54.561Z,7.72
2018-10-11T13:48:18.276Z,7.60
2018-10-11T13:50:46.448Z,8.93
2018-10-11T13:53:18.366Z,7.67
2018-10-11T13:55:45.272Z,7.67
2018-10-11T13:58:11.408Z,7.87
2018-10-11T14:00:39.525Z,7.62
2018-10-11T14:03:08.024Z,7.00
2018-10-11T14:05:36.349Z,7.35
2018-10-11T14:08:04.452Z,7.35
2018-10-11T14:10:32.623Z,7.15
2018-10-11T14:13:00.749Z,7.58
2018-10-11T14:15:28.915Z,7.25
2018-10-11T14:17:59.968Z,6.97
2018-10-11T14:20:25.781Z,7.58
2018-10-11T14:22:53.912Z,7.25
2018-10-11T14:25:22.044Z,7.12
2018-10-11T14:27:50.129Z,7.60
2018-10-11T14:30:18.248Z,7.12
2018-10-11T14:32:46.447Z,7.05
2018-10-11T14:35:14.545Z,7.10
2018-10-11T14:37:42.648Z,7.10
2018-10-11T14:40:10.872Z,7.40
2018-10-11T14:42:39.040Z,7.53
2018-10-11T14:45:07.196Z,8.33
2018-10-11T14:47:35.293Z,7.72
2018-10-11T14:50:03.472Z,7.45
2018-10-11T14:52:31.629Z,7.53
2018-10-11T14:54:59.720Z,8.33
2018-10-11T14:57:27.876Z,7.10
2018-10-11T14:59:55.957Z,7.90
2018-10-11T15:02:24.104Z,7.85
2018-10-11T15:04:52.290Z,8.10
2018-10-11T15:07:20.398Z,7.40
2018-10-11T15:09:48.512Z,7.83
2018-10-11T15:12:16.609Z,7.60
2018-10-11T15:14:44.714Z,7.92
2018-10-11T15:17:12.853Z,8.13
2018-10-11T15:19:40.966Z,11.40
2018-10-11T15:22:09.106Z,7.40
2018-10-11T15:24:37.211Z,9.03
2018-10-11T15:27:05.328Z,7.20
2018-10-11T15:29:33.460Z,7.50
2018-10-11T15:32:01.520Z,7.70
2018-10-11T15:34:29.619Z,7.97
2018-10-11T15:36:57.699Z,7.50
2018-10-11T15:39:25.788Z,7.30
2018-10-11T15:41:53.992Z,7.70
2018-10-11T15:44:22.165Z,7.70
2018-10-11T15:46:50.321Z,8.63
2018-10-11T15:49:18.420Z,7.70
2018-10-11T15:51:46.699Z,7.40
2018-10-11T15:54:14.804Z,7.87
2018-10-11T15:56:42.948Z,8.30
2018-10-11T15:59:11.063Z,7.47
2018-10-11T16:01:39.185Z,8.20
2018-10-11T16:04:07.380Z,8.15
2018-10-11T16:06:35.552Z,7.65
2018-10-11T16:09:05.727Z,8.15
2018-10-11T16:11:33.745Z,8.28
2018-10-11T16:14:01.840Z,8.35
2018-10-11T16:16:29.978Z,11.33
2018-10-11T16:18:58.168Z,14.78
2018-10-11T16:21:26.284Z,9.38
2018-10-11T16:23:54.959Z,8.08
2018-10-11T16:26:23.068Z,8.00
2018-10-11T16:28:51.240Z,8.33
2018-10-11T16:31:19.568Z,8.60
2018-10-11T16:33:47.764Z,8.25
2018-10-11T16:36:15.875Z,8.80
2018-10-11T16:38:43.975Z,9.25
2018-10-11T16:41:12.102Z,9.30
2018-10-11T16:43:40.197Z,9.30
2018-10-11T16:46:08.320Z,8.90
2018-10-11T16:48:36.527Z,9.08
2018-10-11T16:51:04.908Z,9.23
2018-10-11T16:53:33.029Z,8.85
2018-10-11T16:56:01.141Z,8.33
2018-10-11T16:58:29.271Z,8.90
2018-10-11T17:00:57.387Z,9.48
2018-10-11T17:03:25.492Z,10.85
2018-10-11T17:05:53.628Z,9.30
2018-10-11T17:08:21.768Z,12.18
2018-10-11T17:10:49.890Z,16.30
2018-10-11T17:13:17.986Z,12.47
2018-10-11T17:15:46.150Z,10.93
2018-10-11T17:18:14.453Z,9.08
2018-10-11T17:20:42.570Z,9.60
2018-10-11T17:23:10.792Z,10.03
2018-10-11T17:25:38.977Z,10.45
2018-10-11T17:28:07.145Z,9.43
2018-10-11T17:30:35.265Z,10.35
2018-10-11T17:33:03.487Z,10.13
2018-10-11T17:35:31.600Z,10.70
2018-10-11T17:38:00.429Z,10.40
2018-10-11T17:40:28.556Z,10.10
2018-10-11T17:42:56.653Z,10.13
2018-10-11T17:45:24.900Z,9.70
2018-10-11T17:47:53.063Z,9.70
2018-10-11T17:50:21.286Z,9.68
2018-10-11T17:52:49.400Z,10.35
2018-10-11T17:55:17.586Z,10.25
2018-10-11T17:57:45.704Z,10.03
2018-10-11T18:00:13.941Z,9.38
2018-10-11T18:02:42.227Z,9.55
2018-10-11T18:05:10.465Z,9.98
2018-10-11T18:07:38.684Z,10.60
2018-10-11T18:10:06.905Z,10.35
2018-10-11T18:12:34.989Z,9.60
2018-10-11T18:15:03.205Z,10.68
2018-10-11T18:17:32.018Z,10.20
2018-10-11T18:20:00.150Z,9.30
2018-10-11T18:22:28.319Z,10.13
2018-10-11T18:24:56.486Z,10.75
2018-10-11T18:27:24.604Z,10.10
2018-10-11T18:29:52.748Z,10.45
2018-10-11T18:32:20.901Z,13.95
2018-10-11T18:34:49.052Z,11.15
2018-10-11T18:37:17.320Z,10.58
2018-10-11T18:39:45.540Z,10.10
2018-10-11T18:42:13.656Z,10.40
2018-10-11T18:44:42.427Z,10.38
2018-10-11T18:47:10.545Z,11.10
2018-10-11T18:49:38.721Z,11.90
2018-10-11T18:52:07.013Z,11.05
2018-10-11T18:54:35.180Z,11.05
2018-10-11T18:57:03.412Z,10.72
2018-10-11T18:59:31.514Z,10.50
2018-10-11T19:01:59.685Z,9.98
2018-10-11T19:04:27.847Z,10.95
2018-10-11T19:06:56.076Z,10.75
2018-10-11T19:09:24.205Z,10.40
2018-10-11T19:11:52.330Z,11.95
2018-10-11T19:14:20.466Z,14.70
2018-10-11T19:16:48.577Z,10.13
2018-10-11T19:19:16.936Z,11.78
2018-10-11T19:21:45.107Z,12.20
2018-10-11T19:24:13.440Z,13.55
2018-10-11T19:26:41.547Z,14.03
2018-10-11T19:29:09.640Z,11.90
2018-10-11T19:31:37.779Z,11.60
2018-10-11T19:34:05.908Z,12.30
2018-10-11T19:36:34.307Z,11.75
2018-10-11T19:39:02.860Z,11.22
2018-10-11T19:41:31.127Z,10.88
2018-10-11T19:43:59.320Z,10.68
2018-10-11T19:46:28.093Z,16.70
2018-10-11T19:48:56.709Z,14.68
2018-10-11T19:51:24.805Z,11.93
2018-10-11T19:53:53.621Z,11.15
2018-10-11T19:56:21.749Z,11.63
2018-10-11T19:58:49.938Z,11.48
2018-10-11T20:01:19.177Z,11.83
2018-10-11T20:03:48.456Z,11.50
2018-10-11T20:06:16.643Z,12.10
2018-10-11T20:08:44.715Z,11.40
2018-10-11T20:11:13.085Z,11.73
2018-10-11T20:13:41.231Z,11.65
2018-10-11T20:16:09.364Z,11.00
2018-10-11T20:18:37.898Z,12.10
2018-10-11T20:21:06.333Z,12.35
2018-10-11T20:23:35.012Z,11.73
2018-10-11T20:26:03.294Z,12.58
2018-10-11T20:28:31.332Z,12.15
2018-10-11T20:30:59.566Z,12.10
2018-10-11T20:33:27.705Z,12.90
2018-10-11T20:35:56.292Z,12.50
2018-10-11T20:38:24.396Z,13.20
2018-10-11T20:40:52.511Z,13.75
2018-10-11T20:43:20.707Z,12.93
2018-10-11T20:45:48.797Z,12.75
2018-10-11T20:48:16.924Z,12.63
2018-10-11T20:50:45.039Z,12.55
2018-10-11T20:53:13.240Z,12.47
2018-10-11T20:55:41.341Z,11.93
2018-10-11T20:58:09.621Z,13.30
2018-10-11T21:00:37.769Z,13.00
2018-10-11T21:03:06.226Z,12.30
2018-10-11T21:05:34.362Z,14.05
2018-10-11T21:08:02.451Z,13.22
2018-10-11T21:10:30.575Z,12.65
2018-10-11T21:12:58.700Z,12.43
2018-10-11T21:15:26.867Z,12.18
2018-10-11T21:17:55.002Z,12.45
2018-10-11T21:20:23.247Z,12.95
2018-10-11T21:22:51.296Z,13.03
2018-10-11T21:25:19.403Z,13.43
2018-10-11T21:27:47.729Z,13.28
2018-10-11T21:30:15.892Z,13.48
2018-10-11T21:32:44.001Z,12.30
2018-10-11T21:35:12.096Z,12.88
2018-10-11T21:37:40.227Z,11.97
2018-10-11T21:40:08.356Z,11.88
2018-10-11T21:42:36.581Z,11.83
2018-10-11T21:45:04.688Z,11.60
2018-10-11T21:47:32.808Z,12.07
2018-10-11T21:50:01.733Z,11.40
2018-10-11T21:52:29.928Z,11.28
2018-10-11T21:54:58.012Z,11.22
2018-10-11T21:57:26.133Z,10.93
2018-10-11T21:59:54.308Z,10.72
2018-10-11T22:02:22.417Z,11.50
2018-10-11T22:04:50.508Z,11.85
2018-10-11T22:07:18.641Z,10.65
2018-10-11T22:09:46.792Z,10.65
2018-10-11T22:12:14.897Z,10.88
2018-10-11T22:14:43.114Z,12.03
2018-10-11T22:17:11.228Z,11.12
2018-10-11T22:19:39.375Z,11.12
2018-10-11T22:22:07.491Z,10.82
2018-10-11T22:24:35.577Z,10.65
2018-10-11T22:27:03.727Z,10.70
2018-10-11T22:29:31.816Z,10.13
2018-10-11T22:31:59.929Z,10.18
2018-10-11T22:34:28.024Z,10.95
2018-10-11T22:36:56.164Z,10.13
2018-10-11T22:39:24.293Z,11.48
2018-10-11T22:41:52.456Z,10.72
2018-10-11T22:44:20.642Z,11.30
2018-10-11T22:46:48.739Z,10.93
2018-10-11T22:49:16.940Z,10.70
2018-10-11T22:51:45.050Z,10.32
2018-10-11T22:54:13.207Z,10.98
2018-10-11T22:56:41.313Z,10.95
2018-10-11T22:59:09.477Z,10.88
2018-10-11T23:01:37.609Z,9.90
2018-10-11T23:04:05.736Z,10.63
2018-10-11T23:06:33.900Z,10.45
2018-10-11T23:09:02.069Z,10.20
2018-10-11T23:11:30.256Z,9.98
2018-10-11T23:13:58.410Z,9.95
2018-10-11T23:16:26.491Z,9.38
2018-10-11T23:18:54.661Z,10.10
2018-10-11T23:21:22.741Z,9.23
2018-10-11T23:23:50.852Z,9.75
2018-10-11T23:26:18.975Z,9.20
2018-10-11T23:28:47.120Z,9.23
2018-10-11T23:31:15.230Z,9.23
2018-10-11T23:33:43.300Z,8.98
2018-10-11T23:36:11.501Z,9.20
2018-10-11T23:38:39.819Z,9.35
2018-10-11T23:41:08.303Z,8.83
2018-10-11T23:43:36.396Z,8.68
2018-10-11T23:46:04.647Z,9.00
2018-10-11T23:48:32.748Z,8.30
2018-10-11T23:51:00.825Z,8.73
2018-10-11T23:53:28.913Z,8.70
2018-10-11T23:55:57.143Z,8.63
2018-10-11T23:58:25.248Z,9.15
